Time;durP1;ratioP1;P1;durP2;ratioP2;P2;SDS_P1;SDS_P2;PMS_P1;PMS_P2;Temp;Humidity;BMP_temperature;BMP_pressure;BME280_temperature;BME280_humidity;BME280_pressure;Samples;Min_cycle;Max_cycle;Signal;HPM_P1;HPM_P2
2023/10/11 00:01:20;;;;;;;10.13;5.60;;;;;;;;;;5057158;27;87472;-56
2023/10/11 00:03:53;;;;;;;9.03;6.03;;;;;;;;;;5062298;27;88132;-56
2023/10/11 00:06:22;;;;;;;7.07;5.17;;;;;;;;;;5061271;27;89603;-56
2023/10/11 00:08:52;;;;;;;13.87;6.77;;;;;;;;;;5062524;27;89128;-56
2023/10/11 00:11:24;;;;;;;8.03;5.53;;;;;;;;;;5062817;27;87361;-56
2023/10/11 00:13:54;;;;;;;7.80;5.97;;;;;;;;;;5062859;27;87538;-56
2023/10/11 00:16:23;;;;;;;9.30;6.47;;;;;;;;;;5062452;27;89729;-56
2023/10/11 00:18:55;;;;;;;10.87;6.03;;;;;;;;;;5062677;27;89142;-56
2023/10/11 00:21:35;;;;;;;15.90;6.13;;;;;;;;;;5062655;27;87481;-56
2023/10/11 00:24:08;;;;;;;12.33;6.33;;;;;;;;;;5061895;27;87365;-56
2023/10/11 00:26:40;;;;;;;8.97;6.33;;;;;;;;;;5063546;27;89531;-55
2023/10/11 00:29:11;;;;;;;10.20;6.17;;;;;;;;;;5063022;27;88944;-56
2023/10/11 00:31:40;;;;;;;12.50;6.77;;;;;;;;;;5063405;27;87384;-55
2023/10/11 00:34:10;;;;;;;10.43;6.70;;;;;;;;;;5062881;27;87636;-56
2023/10/11 00:36:42;;;;;;;15.07;7.27;;;;;;;;;;5063120;27;89381;-56
2023/10/11 00:39:17;;;;;;;11.97;7.33;;;;;;;;;;5063164;27;87952;-55
2023/10/11 00:41:48;;;;;;;11.60;6.90;;;;;;;;;;5063321;27;87384;-55
2023/10/11 00:44:20;;;;;;;9.03;6.23;;;;;;;;;;5062254;27;87434;-55
2023/10/11 00:46:57;;;;;;;16.47;7.07;;;;;;;;;;5062973;27;89670;-56
2023/10/11 00:49:34;;;;;;;9.90;7.10;;;;;;;;;;5062662;27;88057;-55
2023/10/11 00:52:06;;;;;;;12.03;6.93;;;;;;;;;;5063120;27;87353;-56
2023/10/11 00:54:38;;;;;;;13.33;6.53;;;;;;;;;;5062498;27;87444;-56
2023/10/11 00:57:06;;;;;;;12.20;6.60;;;;;;;;;;5062182;27;89713;-55
2023/10/11 00:59:35;;;;;;;11.13;6.90;;;;;;;;;;5061041;27;89268;-55
2023/10/11 01:02:05;;;;;;;11.53;7.20;;;;;;;;;;5062502;27;87501;-56
2023/10/11 01:04:38;;;;;;;12.37;6.47;;;;;;;;;;5062185;27;87638;-56
2023/10/11 01:07:08;;;;;;;12.70;6.97;;;;;;;;;;5061791;27;88524;-56
2023/10/11 01:09:40;;;;;;;9.23;5.43;;;;;;;;;;5059070;27;88174;-56
2023/10/11 01:12:09;;;;;;;12.33;6.23;;;;;;;;;;5061047;27;87735;-58
2023/10/11 01:14:56;;;;;;;10.97;6.13;;;;;;;;;;5059080;27;87822;-58
2023/10/11 01:17:26;;;;;;;11.00;6.13;;;;;;;;;;5060652;27;89576;-58
2023/10/11 01:19:54;;;;;;;12.53;6.80;;;;;;;;;;5060836;27;88168;-56
2023/10/11 01:22:26;;;;;;;13.30;7.63;;;;;;;;;;5061488;27;87313;-56
2023/10/11 01:24:58;;;;;;;12.63;7.20;;;;;;;;;;5061370;27;87460;-56
2023/10/11 01:27:30;;;;;;;9.23;5.67;;;;;;;;;;5061379;27;89890;-58
2023/10/11 01:29:59;;;;;;;11.10;6.43;;;;;;;;;;5059256;27;88959;-58
2023/10/11 01:32:27;;;;;;;10.40;7.00;;;;;;;;;;5062053;27;87422;-57
2023/10/11 01:34:55;;;;;;;13.87;7.13;;;;;;;;;;5062076;27;87662;-58
2023/10/11 01:37:26;;;;;;;11.13;6.57;;;;;;;;;;5061502;27;88194;-58
2023/10/11 01:39:54;;;;;;;9.87;6.13;;;;;;;;;;5062165;27;89580;-58
2023/10/11 01:42:22;;;;;;;11.73;6.17;;;;;;;;;;5061814;27;87597;-57
2023/10/11 01:44:51;;;;;;;12.07;6.93;;;;;;;;;;5061742;27;87617;-58
2023/10/11 01:47:20;;;;;;;12.03;8.50;;;;;;;;;;5061714;27;88596;-57
2023/10/11 01:49:52;;;;;;;9.53;6.47;;;;;;;;;;5061414;27;88500;-58
2023/10/11 01:52:21;;;;;;;10.80;6.50;;;;;;;;;;5062263;27;87304;-58
2023/10/11 01:54:50;;;;;;;12.03;7.13;;;;;;;;;;5062094;27;87624;-55
2023/10/11 01:57:19;;;;;;;10.40;6.70;;;;;;;;;;5061277;27;89592;-58
2023/10/11 01:59:48;;;;;;;16.23;7.33;;;;;;;;;;5061953;27;87956;-57
2023/10/11 02:02:16;;;;;;;9.33;6.73;;;;;;;;;;5062171;27;87298;-57
2023/10/11 02:04:44;;;;;;;13.10;7.17;;;;;;;;;;5062177;27;87777;-57
2023/10/11 02:07:14;;;;;;;11.77;6.43;;;;;;;;;;5061878;27;88528;-58
2023/10/11 02:09:43;;;;;;;10.13;6.00;;;;;;;;;;5061655;27;87996;-57
2023/10/11 02:12:17;;;;;;;10.83;5.30;;;;;;;;;;5064105;27;88353;-57
2023/10/11 02:14:46;;;;;;;8.60;5.30;;;;;;;;;;5065318;27;87458;-58
2023/10/11 02:17:18;;;;;;;10.60;6.50;;;;;;;;;;5065422;27;89602;-57
2023/10/11 02:19:46;;;;;;;11.33;6.43;;;;;;;;;;5065236;27;89041;-57
2023/10/11 02:22:18;;;;;;;8.33;5.90;;;;;;;;;;5065351;27;87300;-57
2023/10/11 02:24:47;;;;;;;6.80;5.03;;;;;;;;;;5065408;27;87538;-58
2023/10/11 02:27:17;;;;;;;8.10;5.67;;;;;;;;;;5064860;27;88565;-57
2023/10/11 02:29:47;;;;;;;11.57;6.53;;;;;;;;;;5065079;27;88131;-58
2023/10/11 02:32:16;;;;;;;9.30;5.53;;;;;;;;;;5065352;27;87454;-58
2023/10/11 02:34:47;;;;;;;7.33;5.33;;;;;;;;;;5065060;27;87636;-57
2023/10/11 02:37:16;;;;;;;7.80;4.83;;;;;;;;;;5065101;27;89469;-57
2023/10/11 02:39:45;;;;;;;9.60;5.37;;;;;;;;;;5064497;27;89326;-57
2023/10/11 02:42:19;;;;;;;11.80;6.00;;;;;;;;;;5064972;27;87191;-57
2023/10/11 02:44:49;;;;;;;8.40;5.90;;;;;;;;;;5044807;27;87419;-57
2023/10/11 02:47:22;;;;;;;11.53;6.33;;;;;;;;;;5043993;27;89838;-57
2023/10/11 02:49:53;;;;;;;9.03;5.13;;;;;;;;;;5041463;27;89153;-57
2023/10/11 02:52:29;;;;;;;9.70;6.03;;;;;;;;;;5041349;28;87655;-57
2023/10/11 02:54:59;;;;;;;10.73;5.27;;;;;;;;;;5041618;28;87563;-58
2023/10/11 02:57:27;;;;;;;13.17;6.27;;;;;;;;;;5041562;28;89927;-57
2023/10/11 02:59:57;;;;;;;7.50;4.87;;;;;;;;;;5040791;28;88139;-57
2023/10/11 03:02:29;;;;;;;9.00;5.20;;;;;;;;;;5045289;27;88045;-58
2023/10/11 03:05:01;;;;;;;8.63;5.70;;;;;;;;;;5055164;27;87511;-57
2023/10/11 03:07:33;;;;;;;8.70;5.67;;;;;;;;;;5061012;27;88729;-57
2023/10/11 03:10:02;;;;;;;8.33;5.63;;;;;;;;;;5061002;27;87966;-57
2023/10/11 03:12:31;;;;;;;17.07;6.90;;;;;;;;;;5060152;27;88385;-57
2023/10/11 03:15:09;;;;;;;7.63;5.17;;;;;;;;;;5060886;27;87512;-57
2023/10/11 03:17:41;;;;;;;9.40;6.57;;;;;;;;;;5061000;27;89755;-57
2023/10/11 03:20:35;;;;;;;8.10;5.57;;;;;;;;;;5049461;27;89284;-58
2023/10/11 03:23:10;;;;;;;7.20;5.13;;;;;;;;;;5060613;27;87453;-57
2023/10/11 03:25:44;;;;;;;10.73;5.50;;;;;;;;;;5060895;27;87604;-58
2023/10/11 03:28:15;;;;;;;10.00;5.90;;;;;;;;;;5060762;27;89255;-57
2023/10/11 03:30:45;;;;;;;9.30;5.53;;;;;;;;;;5060740;27;87950;-57
2023/10/11 03:33:17;;;;;;;10.30;6.00;;;;;;;;;;5060414;27;87343;-58
2023/10/11 03:35:46;;;;;;;11.67;6.20;;;;;;;;;;5060067;27;87843;-57
2023/10/11 03:38:17;;;;;;;7.43;5.13;;;;;;;;;;5057548;27;88725;-58
2023/10/11 03:41:07;;;;;;;13.47;6.73;;;;;;;;;;5060699;27;89055;-57
2023/10/11 03:43:40;;;;;;;8.83;5.80;;;;;;;;;;5060430;27;87395;-57
2023/10/11 03:46:13;;;;;;;14.87;6.03;;;;;;;;;;5060888;27;87365;-57
2023/10/11 03:48:51;;;;;;;9.43;6.13;;;;;;;;;;5044849;27;89177;-57
2023/10/11 03:51:20;;;;;;;12.03;6.80;;;;;;;;;;5060517;27;87963;-57
2023/10/11 03:53:49;;;;;;;17.17;6.43;;;;;;;;;;5051451;27;87519;-57
2023/10/11 03:56:17;;;;;;;8.10;5.93;;;;;;;;;;5058038;27;87705;-57
2023/10/11 03:58:50;;;;;;;7.33;5.53;;;;;;;;;;5055100;27;89751;-57
2023/10/11 04:01:28;;;;;;;8.60;5.80;;;;;;;;;;5059861;27;88036;-57
2023/10/11 04:03:56;;;;;;;7.87;5.13;;;;;;;;;;5060113;27;87533;-57
2023/10/11 04:06:25;;;;;;;6.97;4.73;;;;;;;;;;5059015;27;87560;-58
2023/10/11 04:09:00;;;;;;;8.13;5.30;;;;;;;;;;5046039;27;89647;-57
2023/10/11 04:11:37;;;;;;;10.50;6.30;;;;;;;;;;5048231;27;87980;-58
2023/10/11 04:14:12;;;;;;;9.30;5.00;;;;;;;;;;5056602;27;87672;-57
2023/10/11 04:16:44;;;;;;;8.53;6.03;;;;;;;;;;5056557;27;87665;-58
2023/10/11 04:19:14;;;;;;;10.67;5.13;;;;;;;;;;5049440;27;88570;-57
2023/10/11 04:21:55;;;;;;;8.37;5.67;;;;;;;;;;5043139;27;88959;-57
2023/10/11 04:24:24;;;;;;;8.07;5.13;;;;;;;;;;5060646;27;87375;-57
2023/10/11 04:27:45;;;;;;;6.83;5.27;;;;;;;;;;5061947;27;87713;-57
2023/10/11 04:29:42;;;;;;;8.40;4.93;;;;;;;;;;5062063;27;89693;-58
2023/10/11 04:32:14;;;;;;;10.20;5.83;;;;;;;;;;5060166;27;88897;-56
2023/10/11 04:34:55;;;;;;;10.27;5.53;;;;;;;;;;5059824;27;87796;-56
2023/10/11 04:37:29;;;;;;;7.77;5.37;;;;;;;;;;5060765;27;87534;-57
2023/10/11 04:40:15;;;;;;;9.77;5.30;;;;;;;;;;5059161;27;89795;-57
2023/10/11 04:42:44;;;;;;;7.43;4.80;;;;;;;;;;5061116;27;88988;-58
2023/10/11 04:45:21;;;;;;;8.97;5.17;;;;;;;;;;5059281;27;87581;-57
2023/10/11 04:47:56;;;;;;;6.60;4.60;;;;;;;;;;5057407;27;87649;-57
2023/10/11 04:50:30;;;;;;;8.33;5.20;;;;;;;;;;5058237;27;89588;-57
2023/10/11 04:52:59;;;;;;;8.13;4.70;;;;;;;;;;5058628;27;87938;-57
2023/10/11 04:55:34;;;;;;;7.50;5.03;;;;;;;;;;5060675;27;87543;-58
2023/10/11 04:58:07;;;;;;;6.13;4.63;;;;;;;;;;5059815;27;87558;-57
2023/10/11 05:00:46;;;;;;;8.90;4.60;;;;;;;;;;5062052;27;87368;-57
2023/10/11 05:03:17;;;;;;;9.17;4.03;;;;;;;;;;5060129;27;89083;-58
2023/10/11 05:05:59;;;;;;;12.37;4.83;;;;;;;;;;5062099;27;88107;-57
2023/10/11 05:08:51;;;;;;;7.47;4.10;;;;;;;;;;5062384;27;87555;-57
2023/10/11 05:11:36;;;;;;;8.67;4.73;;;;;;;;;;5060572;27;88561;-58
2023/10/11 05:16:51;;;;;;;6.30;4.37;;;;;;;;;;5059367;27;87415;-58
2023/10/11 05:19:21;;;;;;;7.80;4.87;;;;;;;;;;5061903;27;88316;-58
2023/10/11 05:21:52;;;;;;;5.80;3.60;;;;;;;;;;5059299;27;89894;-57
2023/10/11 05:24:44;;;;;;;4.43;3.70;;;;;;;;;;5059420;27;89082;-57
2023/10/11 05:27:25;;;;;;;7.87;3.50;;;;;;;;;;5059523;27;87532;-57
2023/10/11 05:30:16;;;;;;;7.60;3.93;;;;;;;;;;5061848;27;87572;-57
2023/10/11 05:32:49;;;;;;;9.57;4.23;;;;;;;;;;5060552;27;89725;-56
2023/10/11 05:35:53;;;;;;;5.90;3.83;;;;;;;;;;5061368;27;88172;-57
2023/10/11 05:52:25;;;;;;;6.73;4.57;;;;;;;;;;5062786;27;87608;-57
2023/10/11 05:54:54;;;;;;;7.57;5.17;;;;;;;;;;5065107;27;89688;-57
2023/10/11 05:57:23;;;;;;;6.70;4.47;;;;;;;;;;5065152;27;89238;-59
2023/10/11 05:59:52;;;;;;;8.20;5.03;;;;;;;;;;5065984;27;87503;-56
2023/10/11 06:02:20;;;;;;;12.00;4.60;;;;;;;;;;5065353;27;87625;-56
2023/10/11 06:04:50;;;;;;;6.30;4.63;;;;;;;;;;5066135;27;89651;-57
2023/10/11 06:07:20;;;;;;;6.93;4.77;;;;;;;;;;5061670;27;89060;-57
2023/10/11 06:09:53;;;;;;;9.60;6.60;;;;;;;;;;5064758;27;87266;-57
2023/10/11 06:12:26;;;;;;;7.53;4.87;;;;;;;;;;5062881;27;87212;-56
2023/10/11 06:14:55;;;;;;;7.53;4.87;;;;;;;;;;5061756;27;88381;-56
2023/10/11 06:17:32;;;;;;;7.40;5.27;;;;;;;;;;5064260;27;88001;-56
2023/10/11 06:20:23;;;;;;;7.83;5.70;;;;;;;;;;5061297;27;87598;-56
2023/10/11 06:22:51;;;;;;;7.80;5.10;;;;;;;;;;5063409;27;87479;-56
2023/10/11 06:25:49;;;;;;;8.27;5.17;;;;;;;;;;5064164;27;89794;-56
2023/10/11 06:28:13;;;;;;;7.73;5.30;;;;;;;;;;5063759;27;88213;-60
2023/10/11 06:30:46;;;;;;;9.60;5.03;;;;;;;;;;5063921;27;87605;-55
2023/10/11 06:33:14;;;;;;;7.80;5.70;;;;;;;;;;5061242;27;87499;-58
2023/10/11 06:35:45;;;;;;;12.17;5.87;;;;;;;;;;5063832;27;88478;-58
2023/10/11 06:38:13;;;;;;;13.57;6.23;;;;;;;;;;5064155;27;88731;-58
2023/10/11 06:40:53;;;;;;;10.57;5.23;;;;;;;;;;5061523;27;87709;-57
2023/10/11 06:43:21;;;;;;;8.73;5.40;;;;;;;;;;5062393;27;87621;-58
2023/10/11 06:45:50;;;;;;;8.03;4.90;;;;;;;;;;5063642;27;89671;-58
2023/10/11 06:48:22;;;;;;;7.07;5.17;;;;;;;;;;5062488;27;88016;-57
2023/10/11 06:50:52;;;;;;;7.37;5.17;;;;;;;;;;5064103;27;87346;-55
2023/10/11 06:53:21;;;;;;;6.27;4.50;;;;;;;;;;5063730;27;87446;-55
2023/10/11 06:55:51;;;;;;;5.97;4.23;;;;;;;;;;5063278;27;88577;-56
2023/10/11 06:58:20;;;;;;;4.80;3.73;;;;;;;;;;5062852;27;89146;-56
2023/10/11 07:00:49;;;;;;;7.17;4.33;;;;;;;;;;5063707;27;87533;-56
2023/10/11 07:03:27;;;;;;;7.07;4.77;;;;;;;;;;5063836;27;87655;-56
2023/10/11 07:05:59;;;;;;;7.90;4.30;;;;;;;;;;5061168;27;89708;-56
2023/10/11 07:08:32;;;;;;;7.00;3.87;;;;;;;;;;5063597;27;89113;-56
2023/10/11 07:11:04;;;;;;;7.27;4.37;;;;;;;;;;5061498;27;87902;-56
2023/10/11 07:13:49;;;;;;;9.20;4.33;;;;;;;;;;5060273;27;87697;-56
2023/10/11 07:16:19;;;;;;;6.67;3.83;;;;;;;;;;5060924;27;89621;-57
2023/10/11 07:18:50;;;;;;;7.80;4.07;;;;;;;;;;5063514;27;89230;-57
2023/10/11 07:21:19;;;;;;;9.10;5.17;;;;;;;;;;5060634;27;87387;-57
2023/10/11 07:23:56;;;;;;;5.00;4.00;;;;;;;;;;5062973;27;87657;-57
2023/10/11 07:29:14;;;;;;;4.47;3.87;;;;;;;;;;5063018;27;88995;-56
2023/10/11 07:31:49;;;;;;;4.30;3.30;;;;;;;;;;5063082;27;87355;-56
2023/10/11 07:34:18;;;;;;;7.30;4.10;;;;;;;;;;5060952;27;87557;-56
2023/10/11 07:36:48;;;;;;;6.53;3.97;;;;;;;;;;5062435;27;89413;-56
2023/10/11 07:39:25;;;;;;;5.50;3.80;;;;;;;;;;5061528;27;88744;-56
2023/10/11 07:42:03;;;;;;;9.73;4.70;;;;;;;;;;5061511;27;87600;-56
2023/10/11 07:44:36;;;;;;;5.43;3.23;;;;;;;;;;5061689;27;87597;-56
2023/10/11 07:47:06;;;;;;;4.33;3.73;;;;;;;;;;5060487;27;89616;-56
2023/10/11 07:49:39;;;;;;;5.80;3.43;;;;;;;;;;5059786;27;91207;-56
2023/10/11 07:52:09;;;;;;;6.67;3.17;;;;;;;;;;5061644;27;89773;-56
2023/10/11 07:54:39;;;;;;;6.47;4.10;;;;;;;;;;5059386;27;87735;-56
2023/10/11 07:57:15;;;;;;;6.17;3.80;;;;;;;;;;5061126;27;88830;-56
2023/10/11 07:59:45;;;;;;;3.90;2.80;;;;;;;;;;5059661;27;89142;-58
2023/10/11 08:02:29;;;;;;;6.03;3.80;;;;;;;;;;5061404;27;88940;-56
2023/10/11 08:04:58;;;;;;;10.13;4.40;;;;;;;;;;5061239;27;87633;-56
2023/10/11 08:07:26;;;;;;;4.53;2.90;;;;;;;;;;5060936;27;89686;-57
2023/10/11 08:09:56;;;;;;;6.67;3.47;;;;;;;;;;5061234;27;88620;-57
2023/10/11 08:12:27;;;;;;;5.93;4.00;;;;;;;;;;5059756;27;87660;-57
2023/10/11 08:14:56;;;;;;;6.30;3.93;;;;;;;;;;5058195;27;87822;-57
2023/10/11 08:17:29;;;;;;;7.33;4.27;;;;;;;;;;5061082;27;89647;-57
2023/10/11 08:19:58;;;;;;;4.83;3.30;;;;;;;;;;5058562;27;89015;-56
2023/10/11 08:22:28;;;;;;;6.77;3.27;;;;;;;;;;5060771;27;87525;-57
2023/10/11 08:24:58;;;;;;;6.23;3.80;;;;;;;;;;5058538;27;87293;-56
2023/10/11 08:27:28;;;;;;;6.00;3.90;;;;;;;;;;5060870;27;89776;-56
2023/10/11 08:30:07;;;;;;;4.17;3.57;;;;;;;;;;5060555;27;88914;-57
2023/10/11 08:32:38;;;;;;;5.63;3.83;;;;;;;;;;5060694;27;88818;-57
2023/10/11 08:35:09;;;;;;;5.47;3.20;;;;;;;;;;5061417;27;87489;-57
2023/10/11 08:37:38;;;;;;;3.70;3.03;;;;;;;;;;5060603;27;89915;-57
2023/10/11 08:40:19;;;;;;;5.33;3.13;;;;;;;;;;5059632;27;90162;-56
2023/10/11 08:42:49;;;;;;;6.00;3.37;;;;;;;;;;5059554;27;88681;-56
2023/10/11 08:45:20;;;;;;;5.40;3.10;;;;;;;;;;5058503;27;87605;-56
2023/10/11 08:47:49;;;;;;;5.87;3.70;;;;;;;;;;5058671;27;89614;-55
2023/10/11 08:50:18;;;;;;;4.77;3.07;;;;;;;;;;5058252;27;89090;-55
2023/10/11 08:52:47;;;;;;;4.57;2.50;;;;;;;;;;5060745;27;88743;-55
2023/10/11 08:55:19;;;;;;;4.97;3.60;;;;;;;;;;5060854;27;87689;-56
2023/10/11 08:57:49;;;;;;;4.00;2.80;;;;;;;;;;5060399;27;88613;-54
2023/10/11 09:00:29;;;;;;;5.83;2.77;;;;;;;;;;5057848;27;89004;-54
2023/10/11 09:02:58;;;;;;;5.37;2.90;;;;;;;;;;5057223;27;87858;-55
2023/10/11 09:05:42;;;;;;;5.90;3.00;;;;;;;;;;5060104;27;87980;-57
2023/10/11 09:08:21;;;;;;;4.27;3.00;;;;;;;;;;5059741;27;88274;-55
2023/10/11 09:10:51;;;;;;;3.97;2.83;;;;;;;;;;5059584;27;88875;-55
2023/10/11 09:13:27;;;;;;;2.97;2.33;;;;;;;;;;5057720;27;89049;-55
2023/10/11 09:15:55;;;;;;;3.73;2.77;;;;;;;;;;5060768;27;87758;-57
2023/10/11 09:18:31;;;;;;;4.87;3.17;;;;;;;;;;5059444;27;89636;-57
2023/10/11 09:21:09;;;;;;;6.73;3.13;;;;;;;;;;5057533;27;87985;-57
2023/10/11 09:23:37;;;;;;;3.37;2.33;;;;;;;;;;5057837;27;88985;-57
2023/10/11 09:26:08;;;;;;;4.17;2.63;;;;;;;;;;5060301;27;87522;-55
2023/10/11 09:28:41;;;;;;;5.40;2.70;;;;;;;;;;5057460;27;90082;-54
2023/10/11 09:31:15;;;;;;;7.13;3.13;;;;;;;;;;5061181;27;88777;-57
2023/10/11 09:33:50;;;;;;;4.10;2.67;;;;;;;;;;5058924;27;88903;-57
2023/10/11 09:36:20;;;;;;;6.17;3.37;;;;;;;;;;5057773;27;87570;-55
2023/10/11 09:38:54;;;;;;;4.23;2.93;;;;;;;;;;5060349;27;89668;-57
2023/10/11 09:41:24;;;;;;;6.13;2.80;;;;;;;;;;5060485;27;89023;-58
2023/10/11 09:43:57;;;;;;;3.87;2.80;;;;;;;;;;5060975;27;89168;-56
2023/10/11 09:46:31;;;;;;;4.87;3.00;;;;;;;;;;5060870;27;87496;-55
2023/10/11 09:49:00;;;;;;;3.23;2.60;;;;;;;;;;5060948;27;87774;-57
2023/10/11 09:51:29;;;;;;;3.93;2.67;;;;;;;;;;5059558;27;88007;-56
2023/10/11 09:54:05;;;;;;;6.70;2.53;;;;;;;;;;5060375;27;87884;-56
2023/10/11 09:56:36;;;;;;;3.27;2.10;;;;;;;;;;5057180;27;87840;-56
2023/10/11 09:59:19;;;;;;;4.73;2.97;;;;;;;;;;5059646;27;88713;-56
2023/10/11 10:01:51;;;;;;;4.03;2.40;;;;;;;;;;5059118;27;88057;-56
2023/10/11 10:04:20;;;;;;;5.70;2.37;;;;;;;;;;5057853;27;87777;-56
2023/10/11 10:07:04;;;;;;;4.20;2.10;;;;;;;;;;5059835;27;88024;-56
2023/10/11 10:09:38;;;;;;;4.10;2.60;;;;;;;;;;5059287;27;88660;-56
2023/10/11 10:12:22;;;;;;;4.00;2.60;;;;;;;;;;5059626;27;88238;-56
2023/10/11 10:15:02;;;;;;;4.53;2.80;;;;;;;;;;5060350;27;88603;-56
2023/10/11 10:17:32;;;;;;;5.43;1.80;;;;;;;;;;5060083;27;87601;-56
2023/10/11 10:20:01;;;;;;;4.43;2.57;;;;;;;;;;5059746;27;88641;-56
2023/10/11 10:22:31;;;;;;;4.07;2.30;;;;;;;;;;5059397;27;90055;-56
2023/10/11 10:25:19;;;;;;;6.43;2.93;;;;;;;;;;5058727;27;90033;-56
2023/10/11 10:27:52;;;;;;;5.33;2.80;;;;;;;;;;5058405;27;87544;-54
2023/10/11 10:30:27;;;;;;;4.47;2.83;;;;;;;;;;5055989;27;88529;-55
2023/10/11 10:33:13;;;;;;;5.37;2.80;;;;;;;;;;5060983;27;89265;-62
2023/10/11 10:35:43;;;;;;;4.97;3.20;;;;;;;;;;5055047;27;87772;-60
2023/10/11 10:38:11;;;;;;;4.83;2.83;;;;;;;;;;5062021;27;87655;-62
2023/10/11 10:40:42;;;;;;;4.70;3.00;;;;;;;;;;5060571;27;87661;-61
2023/10/11 10:43:20;;;;;;;12.17;3.93;;;;;;;;;;5062846;27;88026;-57
2023/10/11 10:45:51;;;;;;;9.50;3.73;;;;;;;;;;5061862;27;88568;-62
2023/10/11 10:48:19;;;;;;;6.80;2.97;;;;;;;;;;5062687;27;87960;-61
2023/10/11 10:50:48;;;;;;;5.17;2.73;;;;;;;;;;5062480;27;89656;-61
2023/10/11 10:53:16;;;;;;;4.10;3.33;;;;;;;;;;5062034;27;88403;-58
2023/10/11 10:55:44;;;;;;;8.13;3.77;;;;;;;;;;5061789;27;88665;-59
2023/10/11 10:58:18;;;;;;;6.33;3.60;;;;;;;;;;5062474;27;87757;-59
2023/10/11 11:00:47;;;;;;;7.70;3.50;;;;;;;;;;5060549;27;89662;-60
2023/10/11 11:03:19;;;;;;;5.30;3.03;;;;;;;;;;5062251;27;87817;-61
2023/10/11 11:05:56;;;;;;;5.77;2.70;;;;;;;;;;5062488;27;87765;-58
2023/10/11 11:08:27;;;;;;;6.27;3.53;;;;;;;;;;5059990;27;87638;-60
2023/10/11 11:10:56;;;;;;;5.97;3.10;;;;;;;;;;5062371;27;89594;-59
2023/10/11 11:13:25;;;;;;;6.20;3.67;;;;;;;;;;5061653;27;89043;-61
2023/10/11 11:15:56;;;;;;;6.77;2.50;;;;;;;;;;5061852;27;89749;-61
2023/10/11 11:18:32;;;;;;;6.70;2.47;;;;;;;;;;5062249;27;88220;-62
2023/10/11 11:21:17;;;;;;;3.30;2.40;;;;;;;;;;5062398;27;89865;-61
2023/10/11 11:23:49;;;;;;;504.97;61.20;;;;;;;;;;5059553;27;89046;-62
2023/10/11 11:26:17;;;;;;;287.17;35.50;;;;;;;;;;5061256;27;87887;-62
2023/10/11 11:28:47;;;;;;;71.13;11.90;;;;;;;;;;5059963;27;87575;-62
2023/10/11 11:31:30;;;;;;;41.30;7.30;;;;;;;;;;5061629;27;88519;-62
2023/10/11 11:34:14;;;;;;;15.97;3.37;;;;;;;;;;5060428;27;88392;-60
2023/10/11 11:36:43;;;;;;;5.17;2.50;;;;;;;;;;5056553;27;87884;-59
2023/10/11 11:39:26;;;;;;;4.47;2.20;;;;;;;;;;5061270;27;87969;-59
2023/10/11 11:41:57;;;;;;;6.57;2.33;;;;;;;;;;5062171;27;89664;-60
2023/10/11 11:44:27;;;;;;;4.13;2.30;;;;;;;;;;5061496;27;89090;-60
2023/10/11 11:46:56;;;;;;;6.07;2.57;;;;;;;;;;5057373;27;88848;-60
2023/10/11 11:49:26;;;;;;;3.40;2.00;;;;;;;;;;5061923;27;87610;-60
2023/10/11 11:51:55;;;;;;;6.23;2.13;;;;;;;;;;5061939;27;89374;-60
2023/10/11 11:54:27;;;;;;;4.00;1.77;;;;;;;;;;5061672;27;89174;-59
2023/10/11 11:56:55;;;;;;;4.60;2.00;;;;;;;;;;5061683;27;88882;-60
2023/10/11 11:59:23;;;;;;;3.80;2.30;;;;;;;;;;5062128;27;87327;-60
2023/10/11 12:01:53;;;;;;;1.67;1.37;;;;;;;;;;5062022;27;89414;-60
2023/10/11 12:04:21;;;;;;;6.10;1.57;;;;;;;;;;5061718;27;90022;-60
2023/10/11 12:06:51;;;;;;;2.43;1.80;;;;;;;;;;5061190;27;89718;-60
2023/10/11 12:09:21;;;;;;;4.23;1.63;;;;;;;;;;5062364;27;87610;-61
2023/10/11 12:11:53;;;;;;;6.27;1.77;;;;;;;;;;5055582;27;89713;-60
2023/10/11 12:14:23;;;;;;;3.00;1.80;;;;;;;;;;5061983;27;88084;-60
2023/10/11 12:16:51;;;;;;;1.97;1.50;;;;;;;;;;5060718;27;87575;-60
2023/10/11 12:19:20;;;;;;;2.67;1.30;;;;;;;;;;5061992;27;87653;-60
2023/10/11 12:21:48;;;;;;;4.53;1.90;;;;;;;;;;5061408;27;89709;-60
2023/10/11 12:24:18;;;;;;;4.53;1.50;;;;;;;;;;5061565;27;89040;-60
2023/10/11 12:26:59;;;;;;;6.07;1.57;;;;;;;;;;5060690;27;88865;-61
2023/10/11 12:29:28;;;;;;;5.53;1.70;;;;;;;;;;5061570;27;87960;-61
2023/10/11 12:31:56;;;;;;;5.80;1.60;;;;;;;;;;5061355;27;89716;-61
2023/10/11 12:34:25;;;;;;;3.60;1.27;;;;;;;;;;5060822;27;88996;-61
2023/10/11 12:36:54;;;;;;;3.37;1.40;;;;;;;;;;5060768;27;88912;-61
2023/10/11 12:39:25;;;;;;;1.93;1.37;;;;;;;;;;5061860;27;87694;-60
2023/10/11 12:41:55;;;;;;;9.67;1.50;;;;;;;;;;5061415;27;89729;-60
2023/10/11 12:44:23;;;;;;;5.53;1.50;;;;;;;;;;5060712;27;89568;-59
2023/10/11 12:46:52;;;;;;;4.17;1.90;;;;;;;;;;5061220;27;88820;-59
2023/10/11 12:49:20;;;;;;;5.33;1.80;;;;;;;;;;5060797;27;87805;-60
2023/10/11 12:51:50;;;;;;;5.53;1.83;;;;;;;;;;5060486;27;89633;-60
2023/10/11 12:54:19;;;;;;;7.00;2.37;;;;;;;;;;5059606;27;90080;-60
2023/10/11 12:56:50;;;;;;;2.97;1.70;;;;;;;;;;5060611;27;92524;-60
2023/10/11 12:59:22;;;;;;;3.00;1.63;;;;;;;;;;5061218;27;87518;-60
2023/10/11 13:01:52;;;;;;;3.97;1.73;;;;;;;;;;5060671;27;88728;-60
2023/10/11 13:04:29;;;;;;;5.67;2.30;;;;;;;;;;5060303;27;87977;-60
2023/10/11 13:07:00;;;;;;;5.37;2.73;;;;;;;;;;5061142;27;88600;-59
2023/10/11 13:09:28;;;;;;;4.53;1.93;;;;;;;;;;5061034;27;87624;-60
2023/10/11 13:11:58;;;;;;;4.17;1.90;;;;;;;;;;5060028;27;87550;-60
2023/10/11 13:14:27;;;;;;;4.73;2.20;;;;;;;;;;5040582;27;87899;-59
2023/10/11 13:16:58;;;;;;;2.97;1.57;;;;;;;;;;5040965;27;87246;-59
2023/10/11 13:19:27;;;;;;;3.70;2.10;;;;;;;;;;5051562;27;88169;-59
2023/10/11 13:21:55;;;;;;;4.70;1.83;;;;;;;;;;5060674;27;88145;-59
2023/10/11 13:24:25;;;;;;;2.30;1.50;;;;;;;;;;5060309;27;87781;-59
2023/10/11 13:26:54;;;;;;;2.93;2.10;;;;;;;;;;5060555;27;87843;-59
2023/10/11 13:29:24;;;;;;;4.30;1.83;;;;;;;;;;5060689;27;87969;-58
2023/10/11 13:31:53;;;;;;;4.47;2.43;;;;;;;;;;5060756;27;89685;-58
2023/10/11 13:34:22;;;;;;;8.63;2.30;;;;;;;;;;5060411;27;89219;-59
2023/10/11 13:36:51;;;;;;;2.43;1.63;;;;;;;;;;5060598;27;88631;-58
2023/10/11 13:39:26;;;;;;;10.90;3.37;;;;;;;;;;5060502;27;87536;-58
2023/10/11 13:41:55;;;;;;;5.63;2.27;;;;;;;;;;5060843;27;89709;-58
2023/10/11 13:44:25;;;;;;;5.30;2.20;;;;;;;;;;5059880;27;90130;-58
2023/10/11 13:46:55;;;;;;;7.13;2.70;;;;;;;;;;5060554;27;88846;-59
2023/10/11 13:49:30;;;;;;;6.60;2.40;;;;;;;;;;5060445;27;87597;-58
2023/10/11 13:51:59;;;;;;;4.27;2.13;;;;;;;;;;5059975;27;88574;-58
2023/10/11 13:54:35;;;;;;;5.93;2.93;;;;;;;;;;5060299;27;87674;-58
2023/10/11 13:57:10;;;;;;;3.07;2.13;;;;;;;;;;5060210;27;87602;-58
2023/10/11 13:59:45;;;;;;;3.87;2.23;;;;;;;;;;5060499;27;87482;-58
2023/10/11 14:02:33;;;;;;;6.47;2.47;;;;;;;;;;5060208;27;89873;-58
2023/10/11 14:05:14;;;;;;;5.60;2.07;;;;;;;;;;5059914;27;89229;-58
2023/10/11 14:07:50;;;;;;;4.33;2.30;;;;;;;;;;5063471;27;88987;-58
2023/10/11 14:10:22;;;;;;;9.40;2.37;;;;;;;;;;5063750;27;87856;-58
2023/10/11 14:12:51;;;;;;;9.23;2.93;;;;;;;;;;5062782;27;89708;-58
2023/10/11 14:15:22;;;;;;;6.93;2.90;;;;;;;;;;5063693;27;87809;-59
2023/10/11 14:17:51;;;;;;;5.30;2.40;;;;;;;;;;5062490;27;87418;-58
2023/10/11 14:20:22;;;;;;;5.77;2.90;;;;;;;;;;5063802;27;87588;-59
2023/10/11 14:22:51;;;;;;;5.13;2.40;;;;;;;;;;5063036;27;88332;-58
2023/10/11 14:25:19;;;;;;;4.40;2.57;;;;;;;;;;5063272;27;88160;-59
2023/10/11 14:27:48;;;;;;;3.67;2.60;;;;;;;;;;5063533;27;88890;-58
2023/10/11 14:30:16;;;;;;;3.97;2.60;;;;;;;;;;5063706;27;87653;-59
2023/10/11 14:32:47;;;;;;;4.53;3.03;;;;;;;;;;5062722;27;89668;-59
2023/10/11 14:35:16;;;;;;;5.03;2.30;;;;;;;;;;5062817;27;90167;-58
2023/10/11 14:37:45;;;;;;;2.70;2.33;;;;;;;;;;5062259;27;89759;-59
2023/10/11 14:40:15;;;;;;;3.97;2.10;;;;;;;;;;5063636;27;87832;-58
2023/10/11 14:42:43;;;;;;;4.13;2.20;;;;;;;;;;5062193;27;89521;-58
2023/10/11 14:45:13;;;;;;;7.20;3.10;;;;;;;;;;5054596;27;89119;-59
2023/10/11 14:47:45;;;;;;;5.53;2.13;;;;;;;;;;5060049;27;87723;-58
2023/10/11 14:50:15;;;;;;;4.97;2.67;;;;;;;;;;5059280;27;87890;-58
2023/10/11 14:52:45;;;;;;;7.73;3.23;;;;;;;;;;5060115;27;89018;-58
2023/10/11 14:55:16;;;;;;;4.27;3.10;;;;;;;;;;5059327;27;88244;-58
2023/10/11 14:57:45;;;;;;;8.17;3.90;;;;;;;;;;5060000;27;88791;-58
2023/10/11 15:00:16;;;;;;;3.63;2.43;;;;;;;;;;5059176;27;88063;-58
2023/10/11 15:02:44;;;;;;;4.17;2.83;;;;;;;;;;5060154;27;88501;-58
2023/10/11 15:05:17;;;;;;;3.80;2.40;;;;;;;;;;5059899;27;88117;-58
2023/10/11 15:07:45;;;;;;;4.10;3.00;;;;;;;;;;5059799;27;87737;-58
2023/10/11 15:10:14;;;;;;;4.60;2.47;;;;;;;;;;5060095;27;87665;-58
2023/10/11 15:12:42;;;;;;;3.97;2.73;;;;;;;;;;5058644;27;88651;-58
2023/10/11 15:15:11;;;;;;;3.77;2.90;;;;;;;;;;5058993;27;88036;-58
2023/10/11 15:17:40;;;;;;;5.00;2.80;;;;;;;;;;5059403;27;87783;-58
2023/10/11 15:20:09;;;;;;;4.47;2.90;;;;;;;;;;5059266;27;87645;-58
2023/10/11 15:22:40;;;;;;;6.50;3.00;;;;;;;;;;5059714;27;89747;-58
2023/10/11 15:25:09;;;;;;;4.30;2.87;;;;;;;;;;5059239;27;89083;-58
2023/10/11 15:27:38;;;;;;;5.00;3.00;;;;;;;;;;5059460;27;90143;-58
2023/10/11 15:30:07;;;;;;;3.33;2.57;;;;;;;;;;5059606;27;88683;-58